Portada
METAR-TAF:

METAR-TAF

Aeroports :

Phitsanulok, Tailàndia

latitud: 16-46-23N, longitud: 100-16-56E, altitud: 47 m

Observació

L'informe es va fer fa 3 hores i 24 minuts, a les 14:00 UTC
Vent 2 kt amb direcció variable
Temperatura 27°C
Humitat 89%
Pressió 1010 hPa
Visibilitat: 8000 m
Escasses núvols a una alçada de 3000 ft

METAR: VTPP 211400Z VRB02KT 8000 FEW030 27/25 Q1010 NOSIG

Hora: 00:24 (17:24 UTC)

Pronòstic

L'informe es va fer fa 6 hores i 24 minuts, a les 11:00 UTC
Pronòstic vàlid del 21 a les 12 UTC al 22 a les 12 UTC
Vent 5 kt del Sud-Est
Visibilitat 10 km o més
Núvols disperses a una alçada de 2500 ft
Temporalment
l' 22 a les 09 UTC al 22 a les 12 UTC
Vent 15 kt amb direcció variable amb ràfegues de 30 kt
Visibilitat: 4000 m
tempesta, pluja

TAF: VTPP 211100Z 2112/2212 14005KT 9999 SCT025 TEMPO 2209/2212 VRB15G30KT 4000 TSRA FEW018FTTH31 VTBB 211100

Observacions i pronòstics meteorològics de més de 4000 aeroports (METAR i TAF).

Les estacions disponibles són els punts grocs i vermells al mapa.

Posi el ratolí al punt desitjat per veure el nom de l'estació.

Feu clic per veure les observacions i els pronòstics meteorològics.

Per canviar el mapa: feu clic els botons verds amb una creu de color negre per apropar; al botó verd amb un guió per allunyar la imatge; o en les fletxes verdes per a mapes adjacents.


METAR-TAF: